Time;durP1;ratioP1;P1;durP2;ratioP2;P2;SDS_P1;SDS_P2;PMS_P1;PMS_P2;Temp;Humidity;BMP_temperature;BMP_pressure;BME280_temperature;BME280_humidity;BME280_pressure;Samples;Min_cycle;Max_cycle;Signal;HPM_P1;HPM_P2
2020/12/09 00:01:51;;;;;;;54.57;20.20;;;;;;;1.55;100.00;95096.28;5079183;28;20207;-70
2020/12/09 00:04:19;;;;;;;55.30;19.40;;;;;;;1.49;100.00;95099.50;5078556;28;20224;-70
2020/12/09 00:06:46;;;;;;;51.27;19.03;;;;;;;1.52;100.00;95091.41;5078052;28;20210;-70
2020/12/09 00:09:14;;;;;;;52.77;19.50;;;;;;;1.35;100.00;95092.25;5078324;28;21335;-69
2020/12/09 00:11:41;;;;;;;53.07;19.70;;;;;;;1.39;100.00;95090.97;5078402;28;20202;-70
2020/12/09 00:14:07;;;;;;;54.53;19.77;;;;;;;1.47;100.00;95088.44;5079062;28;20202;-70
2020/12/09 00:16:34;;;;;;;53.37;18.83;;;;;;;1.51;100.00;95089.78;5078041;28;20583;-70
2020/12/09 00:19:03;;;;;;;61.60;20.23;;;;;;;1.59;100.00;95091.63;5078280;28;20222;-70
2020/12/09 00:21:31;;;;;;;49.87;18.60;;;;;;;1.53;100.00;95095.63;5078733;28;20206;-70
2020/12/09 00:23:57;;;;;;;51.53;18.33;;;;;;;1.50;100.00;95098.53;5078725;28;20245;-70
2020/12/09 00:26:26;;;;;;;56.47;19.63;;;;;;;1.42;100.00;95097.66;5077872;28;20204;-70
2020/12/09 00:28:53;;;;;;;55.73;19.37;;;;;;;1.44;100.00;95098.31;5077914;28;20229;-70
2020/12/09 00:31:21;;;;;;;54.50;19.87;;;;;;;1.45;100.00;95098.19;5078671;28;20199;-70
2020/12/09 00:33:49;;;;;;;54.40;19.63;;;;;;;1.44;100.00;95096.53;5078391;28;20203;-70
2020/12/09 00:36:16;;;;;;;54.77;20.30;;;;;;;1.46;100.00;95104.16;5077575;28;20208;-70
2020/12/09 00:38:43;;;;;;;53.90;18.67;;;;;;;1.53;100.00;95103.44;5078178;28;20231;-70
2020/12/09 00:41:12;;;;;;;53.67;19.00;;;;;;;1.47;100.00;95106.59;5078103;28;21075;-70
2020/12/09 00:43:38;;;;;;;54.07;19.73;;;;;;;1.51;100.00;95110.53;5077802;28;21014;-70
2020/12/09 00:46:04;;;;;;;53.90;19.90;;;;;;;1.54;100.00;95118.03;5077625;28;20501;-70
2020/12/09 00:48:30;;;;;;;51.13;19.37;;;;;;;1.54;100.00;95123.22;5077764;28;20956;-70
2020/12/09 00:50:59;;;;;;;57.97;19.90;;;;;;;1.62;100.00;95120.69;5078062;28;20206;-70
2020/12/09 00:53:26;;;;;;;49.53;19.00;;;;;;;1.54;100.00;95131.03;5078376;28;20203;-70
2020/12/09 00:55:52;;;;;;;51.93;18.37;;;;;;;1.56;100.00;95126.47;5077138;28;20622;-70
2020/12/09 00:58:18;;;;;;;54.40;19.10;;;;;;;1.47;100.00;95139.56;5077531;28;20212;-70
2020/12/09 01:00:44;;;;;;;56.13;19.47;;;;;;;1.48;100.00;95143.78;5077576;28;21070;-70
2020/12/09 01:03:10;;;;;;;55.37;18.90;;;;;;;1.53;100.00;95139.75;5078468;28;20315;-70
2020/12/09 01:05:36;;;;;;;52.87;18.73;;;;;;;1.57;100.00;95140.28;5077448;28;20286;-70
2020/12/09 01:08:03;;;;;;;49.17;18.23;;;;;;;1.59;100.00;95141.78;5076874;28;20290;-70
2020/12/09 01:10:29;;;;;;;53.37;19.30;;;;;;;1.58;100.00;95145.31;5077584;28;21418;-70
2020/12/09 01:12:55;;;;;;;57.80;19.37;;;;;;;1.49;100.00;95147.97;5078012;28;20203;-70
2020/12/09 01:15:21;;;;;;;50.47;17.20;;;;;;;1.50;100.00;95154.81;5076378;28;20198;-70
2020/12/09 01:17:47;;;;;;;52.60;18.87;;;;;;;1.58;100.00;95153.13;5077757;28;20208;-70
2020/12/09 01:20:13;;;;;;;52.53;18.93;;;;;;;1.67;100.00;95157.41;5077165;28;20230;-70
2020/12/09 01:22:39;;;;;;;51.73;18.93;;;;;;;1.62;100.00;95159.63;5077175;28;20211;-70
2020/12/09 01:25:06;;;;;;;58.60;19.47;;;;;;;1.61;100.00;95139.03;5076867;28;20258;-70
2020/12/09 01:27:32;;;;;;;52.03;18.80;;;;;;;1.62;100.00;95148.44;5076747;28;20749;-70
2020/12/09 01:29:58;;;;;;;54.37;19.33;;;;;;;1.67;100.00;95152.22;5077234;28;20306;-70
2020/12/09 01:32:24;;;;;;;53.37;18.83;;;;;;;1.53;100.00;95155.34;5077140;28;20612;-69
2020/12/09 01:34:50;;;;;;;50.93;16.27;;;;;;;1.48;100.00;95161.94;5077071;28;20200;-70
2020/12/09 01:37:16;;;;;;;54.60;19.13;;;;;;;1.38;100.00;95164.59;5076648;28;21023;-70
2020/12/09 01:39:42;;;;;;;57.90;20.23;;;;;;;1.29;100.00;95162.88;5076582;28;21188;-69
2020/12/09 01:42:09;;;;;;;49.93;16.40;;;;;;;1.32;100.00;95174.75;5077144;28;20200;-70
2020/12/09 01:44:35;;;;;;;55.93;18.53;;;;;;;1.29;100.00;95178.47;5077017;28;20227;-70
2020/12/09 01:47:04;;;;;;;53.73;17.87;;;;;;;1.32;100.00;95177.34;5076462;28;20897;-70
2020/12/09 01:49:32;;;;;;;59.43;19.80;;;;;;;1.45;100.00;95178.63;5076669;28;20219;-70
2020/12/09 01:51:59;;;;;;;55.93;18.10;;;;;;;1.37;100.00;95175.94;5076799;28;20200;-69
2020/12/09 01:54:25;;;;;;;52.93;18.10;;;;;;;1.37;100.00;95180.31;5077167;28;20250;-69
2020/12/09 01:57:03;;;;;;;54.87;19.17;;;;;;;1.41;100.00;95182.50;5076056;28;20215;-69
2020/12/09 01:59:30;;;;;;;49.83;17.63;;;;;;;1.42;100.00;95188.47;5076880;28;20230;-69
2020/12/09 02:01:56;;;;;;;52.67;18.33;;;;;;;1.46;100.00;95195.00;5076982;28;20242;-70
2020/12/09 02:04:22;;;;;;;53.60;18.03;;;;;;;1.50;100.00;95194.59;5076851;28;20224;-70
2020/12/09 02:06:50;;;;;;;55.80;19.53;;;;;;;1.46;100.00;95195.81;5076192;28;20199;-70
2020/12/09 02:09:16;;;;;;;50.47;17.87;;;;;;;1.48;100.00;95199.09;5076564;28;20226;-70
2020/12/09 02:11:42;;;;;;;55.77;18.13;;;;;;;1.46;100.00;95200.19;5076338;28;20199;-70
2020/12/09 02:14:08;;;;;;;56.07;19.37;;;;;;;1.55;100.00;95196.72;5076849;28;20195;-70
2020/12/09 02:16:35;;;;;;;53.57;18.37;;;;;;;1.55;100.00;95200.13;5076515;28;20286;-70
2020/12/09 02:19:01;;;;;;;57.70;19.60;;;;;;;1.52;100.00;95205.63;5076963;28;20224;-70
2020/12/09 02:21:27;;;;;;;56.50;18.87;;;;;;;1.37;100.00;95207.06;5076002;28;20277;-70
2020/12/09 02:23:54;;;;;;;50.13;17.97;;;;;;;1.43;100.00;95203.91;5076732;28;20227;-70
2020/12/09 02:26:20;;;;;;;51.00;18.20;;;;;;;1.47;100.00;95213.03;5076493;28;20521;-70
2020/12/09 02:28:46;;;;;;;56.87;19.17;;;;;;;1.51;100.00;95214.34;5076131;28;20234;-70
2020/12/09 02:31:12;;;;;;;51.17;18.23;;;;;;;1.60;100.00;95213.47;5076834;28;20299;-70
2020/12/09 02:33:38;;;;;;;52.67;18.50;;;;;;;1.63;100.00;95212.34;5080318;28;20735;-70
2020/12/09 02:36:04;;;;;;;55.07;19.30;;;;;;;1.58;100.00;95211.97;5079796;28;20326;-70
2020/12/09 02:38:30;;;;;;;56.10;19.30;;;;;;;1.58;100.00;95204.19;5080821;28;20287;-70
2020/12/09 02:40:57;;;;;;;54.63;18.83;;;;;;;1.64;100.00;95208.81;5080300;28;20208;-70
2020/12/09 02:43:23;;;;;;;55.57;18.23;;;;;;;1.71;100.00;95205.47;5080452;28;20227;-70
2020/12/09 02:45:49;;;;;;;47.80;16.57;;;;;;;1.62;100.00;95214.16;5079954;28;20722;-69
2020/12/09 02:48:15;;;;;;;48.10;17.27;;;;;;;1.52;100.00;95210.81;5080451;28;20276;-70
2020/12/09 02:50:41;;;;;;;53.77;19.93;;;;;;;1.49;100.00;95210.28;5080262;28;20960;-70
2020/12/09 02:53:07;;;;;;;53.27;18.87;;;;;;;1.51;100.00;95213.56;5080121;28;20200;-70
2020/12/09 02:55:33;;;;;;;52.50;18.37;;;;;;;1.48;100.00;95219.06;5079773;28;20692;-70
2020/12/09 02:58:00;;;;;;;56.30;18.53;;;;;;;1.55;100.00;95220.06;5080173;28;20298;-70
2020/12/09 03:00:26;;;;;;;49.03;16.90;;;;;;;1.44;100.00;95217.69;5079819;28;20219;-70
2020/12/09 03:02:52;;;;;;;56.30;18.40;;;;;;;1.41;100.00;95224.00;5080033;28;20203;-70
2020/12/09 03:05:18;;;;;;;47.40;17.93;;;;;;;1.35;100.00;95239.31;5079481;28;20227;-70
2020/12/09 03:07:45;;;;;;;49.93;17.70;;;;;;;1.43;100.00;95245.44;5079839;28;20667;-70
2020/12/09 03:10:10;;;;;;;57.77;19.90;;;;;;;1.37;100.00;95258.97;5079556;28;20226;-70
2020/12/09 03:12:36;;;;;;;59.90;19.40;;;;;;;1.48;100.00;95257.97;5080320;28;20325;-70
2020/12/09 03:15:04;;;;;;;54.83;18.43;;;;;;;1.45;100.00;95255.66;5078645;28;20575;-70
2020/12/09 03:17:30;;;;;;;53.47;18.80;;;;;;;1.45;100.00;95246.09;5079799;28;20203;-69
2020/12/09 03:19:56;;;;;;;50.67;17.43;;;;;;;1.52;100.00;95236.75;5080145;28;20228;-70
2020/12/09 03:22:22;;;;;;;49.17;17.77;;;;;;;1.48;100.00;95239.81;5079199;28;20204;-70
2020/12/09 03:24:48;;;;;;;54.73;18.37;;;;;;;1.50;100.00;95233.50;5079281;28;20227;-70
2020/12/09 03:27:14;;;;;;;54.90;18.93;;;;;;;1.49;100.00;95229.28;5079720;28;20200;-70
2020/12/09 03:29:40;;;;;;;56.63;18.70;;;;;;;1.54;100.00;95221.88;5079600;28;20216;-70
2020/12/09 03:32:07;;;;;;;47.53;17.00;;;;;;;1.61;100.00;95230.69;5079787;28;20218;-70
2020/12/09 03:34:33;;;;;;;54.57;18.90;;;;;;;1.60;100.00;95233.44;5079334;28;20214;-70
2020/12/09 03:36:59;;;;;;;54.80;18.50;;;;;;;1.65;100.00;95232.00;5078891;28;20200;-70
2020/12/09 03:39:25;;;;;;;53.73;18.07;;;;;;;1.78;100.00;95223.88;5079489;28;20215;-70
2020/12/09 03:41:51;;;;;;;52.00;18.43;;;;;;;1.72;100.00;95227.03;5079047;28;20208;-70
2020/12/09 03:44:17;;;;;;;56.30;18.60;;;;;;;1.74;100.00;95225.13;5078726;28;20755;-70
2020/12/09 03:46:43;;;;;;;49.30;18.33;;;;;;;1.64;100.00;95225.19;5076728;28;20192;-70
2020/12/09 03:49:10;;;;;;;54.20;18.80;;;;;;;1.63;100.00;95215.78;5079157;28;20690;-70
2020/12/09 03:51:36;;;;;;;52.87;18.33;;;;;;;1.66;100.00;95220.69;5079554;28;20204;-70
2020/12/09 03:54:03;;;;;;;54.93;19.30;;;;;;;1.72;100.00;95212.31;5079216;28;20201;-70
2020/12/09 03:56:29;;;;;;;48.97;18.40;;;;;;;1.69;100.00;95212.56;5078238;28;21187;-70
2020/12/09 03:58:55;;;;;;;59.33;18.37;;;;;;;1.64;100.00;95219.19;5079166;28;20235;-70
2020/12/09 04:01:21;;;;;;;55.27;19.40;;;;;;;1.73;100.00;95223.50;5079065;28;20654;-70
2020/12/09 04:03:47;;;;;;;58.40;18.47;;;;;;;1.73;100.00;95228.69;5078501;28;21014;-70
2020/12/09 04:06:14;;;;;;;59.67;20.87;;;;;;;1.56;100.00;95224.31;5078208;28;20738;-70
2020/12/09 04:08:40;;;;;;;59.63;19.37;;;;;;;1.61;100.00;95241.06;5079167;28;20219;-70
2020/12/09 04:11:06;;;;;;;56.90;18.80;;;;;;;1.60;100.00;95249.81;5078180;28;20207;-70
2020/12/09 04:13:32;;;;;;;57.37;19.90;;;;;;;1.69;100.00;95238.53;5078882;28;20227;-70
2020/12/09 04:15:57;;;;;;;55.60;19.70;;;;;;;1.59;100.00;95245.59;5077827;28;20230;-70
2020/12/09 04:18:24;;;;;;;55.57;19.67;;;;;;;1.66;100.00;95244.03;5078726;28;20203;-70
2020/12/09 04:20:50;;;;;;;58.63;19.70;;;;;;;1.64;100.00;95238.16;5078888;28;20253;-70
2020/12/09 04:23:17;;;;;;;57.83;19.43;;;;;;;1.65;100.00;95237.22;5078305;28;20207;-70
2020/12/09 04:25:43;;;;;;;56.53;19.80;;;;;;;1.74;100.00;95233.72;5078106;28;20208;-69
2020/12/09 04:28:09;;;;;;;55.27;18.97;;;;;;;1.89;100.00;95229.66;5078423;28;20221;-69
2020/12/09 04:30:35;;;;;;;57.30;18.93;;;;;;;1.77;100.00;95230.84;5077895;28;20624;-70
2020/12/09 04:33:00;;;;;;;61.90;20.50;;;;;;;1.66;100.00;95227.66;5078985;28;20253;-69
2020/12/09 04:35:27;;;;;;;60.33;20.93;;;;;;;1.72;100.00;95227.88;5076859;28;20196;-70
2020/12/09 04:37:55;;;;;;;58.83;19.40;;;;;;;1.61;100.00;95222.91;5078398;28;20219;-70
2020/12/09 04:40:24;;;;;;;55.10;19.50;;;;;;;1.53;100.00;95238.41;5078873;28;20220;-69
2020/12/09 04:43:01;;;;;;;56.67;19.13;;;;;;;1.56;100.00;95243.28;5078087;28;20204;-70
2020/12/09 04:45:29;;;;;;;55.83;19.47;;;;;;;1.52;100.00;95241.94;5077111;28;20892;-70
2020/12/09 04:48:06;;;;;;;57.27;20.60;;;;;;;1.58;100.00;95249.16;5078105;28;20210;-69
2020/12/09 04:50:36;;;;;;;60.73;20.30;;;;;;;1.56;100.00;95253.66;5078439;28;20216;-69
2020/12/09 04:53:07;;;;;;;60.17;20.43;;;;;;;1.53;100.00;95256.56;5077912;28;20322;-70
2020/12/09 04:55:49;;;;;;;68.27;21.13;;;;;;;1.42;100.00;95250.75;5076824;28;20629;-70
2020/12/09 04:58:16;;;;;;;56.90;19.17;;;;;;;1.53;100.00;95259.16;5077797;28;20204;-70
2020/12/09 05:00:45;;;;;;;57.33;19.83;;;;;;;1.53;100.00;95253.97;5077646;28;20218;-70
2020/12/09 05:03:17;;;;;;;60.87;19.60;;;;;;;1.61;100.00;95255.84;5078029;28;20204;-70
2020/12/09 05:05:44;;;;;;;58.90;20.10;;;;;;;1.63;100.00;95252.13;5076951;28;20598;-70
2020/12/09 05:08:19;;;;;;;56.13;19.33;;;;;;;1.67;100.00;95257.81;5077616;28;20199;-70
2020/12/09 05:10:50;;;;;;;57.63;20.37;;;;;;;1.73;100.00;95257.25;5077947;28;20196;-69
2020/12/09 05:13:21;;;;;;;64.83;20.80;;;;;;;1.67;100.00;95271.63;5077956;28;20195;-70
2020/12/09 05:15:52;;;;;;;56.10;18.30;;;;;;;1.67;100.00;95273.41;5076774;28;20291;-69
2020/12/09 05:18:33;;;;;;;56.53;19.43;;;;;;;1.63;100.00;95269.47;5077454;28;20760;-69
2020/12/09 05:21:08;;;;;;;56.30;20.13;;;;;;;1.56;100.00;95266.66;5077990;28;20548;-69
2020/12/09 05:23:39;;;;;;;56.70;20.03;;;;;;;1.65;100.00;95264.97;5077263;28;20605;-70
2020/12/09 05:26:06;;;;;;;58.40;19.90;;;;;;;1.65;100.00;95263.16;5076339;28;20200;-69
2020/12/09 05:28:32;;;;;;;55.33;18.80;;;;;;;1.50;100.00;95274.22;5077540;28;20206;-70
2020/12/09 05:30:58;;;;;;;58.07;19.20;;;;;;;1.48;100.00;95271.75;5077287;28;20195;-70
2020/12/09 05:33:31;;;;;;;61.57;21.17;;;;;;;1.48;100.00;95276.94;5076794;28;20306;-70
2020/12/09 05:36:00;;;;;;;60.87;20.40;;;;;;;1.55;100.00;95280.59;5076839;28;20682;-70
2020/12/09 05:38:26;;;;;;;56.63;19.40;;;;;;;1.58;100.00;95282.91;5077192;28;20208;-70
2020/12/09 05:40:54;;;;;;;60.37;20.80;;;;;;;1.67;100.00;95288.97;5077045;28;20203;-70
2020/12/09 05:43:22;;;;;;;57.80;19.27;;;;;;;1.68;100.00;95295.81;5077545;28;20199;-70
2020/12/09 05:45:48;;;;;;;56.43;19.63;;;;;;;1.82;100.00;95296.16;5076555;28;20219;-70
2020/12/09 05:48:15;;;;;;;53.67;19.37;;;;;;;1.82;100.00;95298.75;5076777;28;20202;-70
2020/12/09 05:50:49;;;;;;;46.60;16.80;;;;;;;1.77;100.00;95298.38;5077123;28;20237;-70
2020/12/09 05:53:16;;;;;;;51.47;17.87;;;;;;;1.74;100.00;95301.22;5077982;28;20218;-70
2020/12/09 05:55:43;;;;;;;52.27;18.50;;;;;;;1.78;100.00;95310.38;5075749;28;20199;-70
2020/12/09 05:58:24;;;;;;;53.23;19.87;;;;;;;1.80;100.00;95316.25;5076696;28;20243;-70
2020/12/09 06:01:16;;;;;;;51.67;17.30;;;;;;;1.84;100.00;95313.19;5077494;28;20203;-70
2020/12/09 06:03:44;;;;;;;51.57;18.27;;;;;;;1.93;100.00;95319.28;5076496;28;20199;-70
2020/12/09 06:06:22;;;;;;;54.47;18.87;;;;;;;1.90;100.00;95314.41;5075605;28;20204;-70
2020/12/09 06:08:50;;;;;;;53.07;18.73;;;;;;;1.80;100.00;95313.66;5076718;28;20246;-70
2020/12/09 06:11:18;;;;;;;52.20;19.20;;;;;;;1.76;100.00;95321.84;5076985;28;20213;-70
2020/12/09 06:13:45;;;;;;;49.23;17.90;;;;;;;1.80;100.00;95325.81;5076742;28;20712;-70
2020/12/09 06:16:14;;;;;;;50.07;17.57;;;;;;;1.94;100.00;95328.72;5076202;28;20670;-70
2020/12/09 06:18:43;;;;;;;48.03;18.10;;;;;;;1.92;100.00;95328.03;5076382;28;20310;-70
2020/12/09 06:21:09;;;;;;;49.13;16.17;;;;;;;1.92;100.00;95334.06;5076765;28;21032;-70
2020/12/09 06:23:35;;;;;;;53.17;18.20;;;;;;;1.87;100.00;95331.09;5076693;28;20689;-70
2020/12/09 06:26:03;;;;;;;46.37;17.07;;;;;;;1.98;100.00;95330.88;5076153;28;20207;-70
2020/12/09 06:28:31;;;;;;;54.87;17.57;;;;;;;2.03;100.00;95320.03;5076214;28;20203;-70
2020/12/09 06:31:08;;;;;;;48.87;16.73;;;;;;;1.87;100.00;95330.25;5076564;28;21300;-71
2020/12/09 06:33:36;;;;;;;54.13;19.53;;;;;;;1.79;100.00;95322.38;5076625;28;20200;-70
2020/12/09 06:36:16;;;;;;;49.33;18.10;;;;;;;1.66;100.00;95316.72;5075362;28;20494;-70
2020/12/09 06:39:13;;;;;;;55.20;18.40;;;;;;;1.55;100.00;95319.53;5076159;28;20219;-70
2020/12/09 06:41:44;;;;;;;48.03;16.17;;;;;;;1.53;100.00;95321.47;5076315;28;20275;-70
2020/12/09 06:44:11;;;;;;;56.90;20.07;;;;;;;1.46;100.00;95329.97;5076294;28;20222;-70
2020/12/09 06:46:40;;;;;;;57.80;19.70;;;;;;;1.45;100.00;95334.34;5075941;28;20209;-70
2020/12/09 06:49:36;;;;;;;55.77;17.90;;;;;;;1.46;100.00;95325.59;5076627;28;20230;-70
2020/12/09 06:52:09;;;;;;;65.37;19.90;;;;;;;1.50;100.00;95339.94;5076361;28;20206;-70
2020/12/09 06:54:40;;;;;;;59.33;19.43;;;;;;;1.53;100.00;95342.22;5076251;28;20690;-71
2020/12/09 06:57:13;;;;;;;52.67;18.60;;;;;;;1.56;100.00;95346.31;5075603;28;20978;-70
2020/12/09 06:59:39;;;;;;;55.87;18.97;;;;;;;1.52;100.00;95345.78;5075752;28;20255;-71
2020/12/09 07:02:07;;;;;;;53.40;17.27;;;;;;;1.48;100.00;95341.84;5076183;28;20200;-71
2020/12/09 07:05:04;;;;;;;59.53;19.40;;;;;;;1.55;100.00;95339.47;5077092;28;20313;-70
2020/12/09 07:07:31;;;;;;;57.87;18.77;;;;;;;1.54;100.00;95338.69;5072689;28;20813;-70
2020/12/09 07:09:57;;;;;;;63.53;20.30;;;;;;;1.59;100.00;95346.84;5075714;28;21170;-71
2020/12/09 07:12:25;;;;;;;55.47;20.00;;;;;;;1.60;100.00;95353.66;5076503;28;20204;-71
2020/12/09 07:14:52;;;;;;;65.77;21.83;;;;;;;1.64;100.00;95354.19;5076294;28;21013;-70
2020/12/09 07:17:21;;;;;;;62.90;21.23;;;;;;;1.65;100.00;95353.22;5075977;28;20234;-71
2020/12/09 07:19:47;;;;;;;62.53;21.40;;;;;;;1.66;100.00;95353.09;5078146;28;20258;-71
2020/12/09 07:22:13;;;;;;;54.97;20.83;;;;;;;1.74;100.00;95355.75;5079836;28;20195;-71
2020/12/09 07:24:39;;;;;;;67.83;21.43;;;;;;;1.74;100.00;95368.75;5079443;28;20228;-70
2020/12/09 07:27:09;;;;;;;62.03;21.33;;;;;;;1.72;100.00;95354.28;5079053;28;20222;-70
2020/12/09 07:29:37;;;;;;;58.60;20.10;;;;;;;1.82;100.00;95358.47;5079335;28;20216;-71
2020/12/09 07:32:04;;;;;;;53.40;18.67;;;;;;;1.81;100.00;95370.63;5079607;28;20206;-71
2020/12/09 07:34:31;;;;;;;56.57;19.33;;;;;;;1.75;100.00;95367.78;5079464;28;20200;-71
2020/12/09 07:36:57;;;;;;;47.80;16.53;;;;;;;1.79;100.00;95366.53;5078972;28;20203;-71
2020/12/09 07:39:27;;;;;;;52.90;18.40;;;;;;;1.78;100.00;95364.91;5079777;28;20222;-71
2020/12/09 07:41:57;;;;;;;57.13;17.80;;;;;;;1.70;100.00;95371.78;5078935;28;20206;-70
2020/12/09 07:44:23;;;;;;;58.40;19.37;;;;;;;1.65;100.00;95371.41;5079600;28;21088;-70
2020/12/09 07:46:56;;;;;;;53.77;18.83;;;;;;;1.63;100.00;95374.16;5078510;28;20203;-70
2020/12/09 07:49:22;;;;;;;63.13;22.37;;;;;;;1.57;100.00;95372.13;5079445;28;20730;-70
2020/12/09 07:51:51;;;;;;;61.20;19.67;;;;;;;1.60;100.00;95379.63;5078711;28;20207;-71
2020/12/09 07:54:18;;;;;;;71.60;21.97;;;;;;;1.49;100.00;95387.59;5079129;28;20570;-70
2020/12/09 07:56:44;;;;;;;63.70;21.23;;;;;;;1.44;100.00;95395.00;5078507;28;20200;-71
2020/12/09 07:59:12;;;;;;;64.50;20.90;;;;;;;1.47;100.00;95389.50;5079180;28;20231;-71
2020/12/09 08:01:38;;;;;;;64.33;23.50;;;;;;;1.46;100.00;95393.06;5079050;28;20281;-71
2020/12/09 08:04:04;;;;;;;75.87;27.70;;;;;;;1.47;100.00;95383.50;5078731;28;20207;-71
2020/12/09 08:06:30;;;;;;;74.87;24.43;;;;;;;1.48;100.00;95385.97;5078509;28;20196;-71
2020/12/09 08:08:57;;;;;;;66.57;23.40;;;;;;;1.53;100.00;95388.16;5078728;28;20251;-71
2020/12/09 08:11:23;;;;;;;64.77;20.27;;;;;;;1.49;100.00;95387.59;5079230;28;20203;-70
2020/12/09 08:13:49;;;;;;;72.90;22.20;;;;;;;1.52;100.00;95384.72;5078979;28;21346;-70
2020/12/09 08:16:14;;;;;;;63.67;19.97;;;;;;;1.52;100.00;95397.69;5077887;28;20630;-70
2020/12/09 08:18:42;;;;;;;74.73;23.60;;;;;;;1.46;100.00;95395.66;5078951;28;20326;-70
2020/12/09 08:21:09;;;;;;;65.00;22.20;;;;;;;1.44;100.00;95389.81;5078707;28;20618;-70
2020/12/09 08:23:39;;;;;;;76.53;23.60;;;;;;;1.50;100.00;95389.25;5078372;28;20203;-71
2020/12/09 08:26:06;;;;;;;71.67;23.90;;;;;;;1.49;100.00;95397.16;5074025;28;20905;-71
2020/12/09 08:28:33;;;;;;;66.90;22.00;;;;;;;1.45;100.00;95396.63;5078247;28;20226;-71
2020/12/09 08:31:00;;;;;;;64.40;21.93;;;;;;;1.38;100.00;95400.75;5076638;28;20228;-71
2020/12/09 08:33:27;;;;;;;74.03;23.87;;;;;;;1.40;100.00;95398.84;5078378;28;20211;-71
2020/12/09 08:35:58;;;;;;;73.53;24.30;;;;;;;1.44;100.00;95400.19;5077807;28;20204;-70
2020/12/09 08:38:30;;;;;;;60.70;20.03;;;;;;;1.40;100.00;95395.41;5077905;28;20207;-70
2020/12/09 08:40:58;;;;;;;72.93;23.27;;;;;;;1.44;100.00;95400.19;5074806;28;20204;-70
2020/12/09 08:43:26;;;;;;;42.77;14.03;;;;;;;1.39;100.00;95393.81;5077917;28;20207;-70
2020/12/09 08:45:52;;;;;;;68.90;23.23;;;;;;;1.41;100.00;95394.47;5076279;28;20219;-70
2020/12/09 08:48:19;;;;;;;75.60;25.50;;;;;;;1.45;100.00;95396.63;5077098;28;20203;-71
2020/12/09 08:50:45;;;;;;;60.40;21.00;;;;;;;1.45;100.00;95398.41;5076918;28;20208;-71
2020/12/09 08:53:11;;;;;;;62.30;20.77;;;;;;;1.44;100.00;95396.75;5077596;28;20214;-71
2020/12/09 08:55:37;;;;;;;62.67;22.87;;;;;;;1.43;100.00;95403.75;5076400;28;20200;-71
2020/12/09 08:58:03;;;;;;;54.67;20.53;;;;;;;1.50;100.00;95398.78;5077401;28;20210;-71
2020/12/09 09:00:30;;;;;;;63.33;23.07;;;;;;;1.54;100.00;95406.16;5076878;28;20223;-71
2020/12/09 09:02:57;;;;;;;67.50;22.73;;;;;;;1.56;100.00;95409.41;5076841;28;20206;-73
2020/12/09 09:05:23;;;;;;;67.80;22.80;;;;;;;1.59;100.00;95409.16;5076858;28;20264;-71
2020/12/09 09:07:49;;;;;;;62.53;21.97;;;;;;;1.59;100.00;95413.50;5076484;28;21003;-73
2020/12/09 09:10:15;;;;;;;62.27;20.40;;;;;;;1.67;100.00;95411.84;5076971;28;20230;-73
2020/12/09 09:12:41;;;;;;;57.00;19.70;;;;;;;1.73;100.00;95416.44;5076479;28;20231;-72
2020/12/09 09:15:07;;;;;;;66.83;23.50;;;;;;;1.67;100.00;95416.19;5074830;28;20219;-71
2020/12/09 09:17:36;;;;;;;51.33;18.30;;;;;;;1.69;100.00;95409.91;5076638;28;20296;-71
2020/12/09 09:20:03;;;;;;;49.27;18.97;;;;;;;1.67;100.00;95422.22;5075664;28;20278;-72
2020/12/09 09:22:29;;;;;;;51.90;18.20;;;;;;;1.69;100.00;95415.09;5076895;28;20200;-73
2020/12/09 09:24:55;;;;;;;65.60;23.70;;;;;;;1.77;100.00;95410.03;5076732;28;21063;-73
2020/12/09 09:27:21;;;;;;;69.07;23.97;;;;;;;1.77;100.00;95412.63;5075903;28;20659;-75
2020/12/09 09:29:47;;;;;;;62.30;23.67;;;;;;;1.83;100.00;95415.47;5076483;28;20327;-76
2020/12/09 09:32:13;;;;;;;65.53;23.53;;;;;;;1.80;100.00;95417.53;5076751;28;20299;-75
2020/12/09 09:34:40;;;;;;;65.43;22.90;;;;;;;1.76;100.00;95418.78;5075868;28;20659;-73
2020/12/09 09:37:07;;;;;;;64.23;22.00;;;;;;;1.76;100.00;95415.34;5076653;28;20199;-73
2020/12/09 09:39:34;;;;;;;61.57;22.73;;;;;;;1.76;100.00;95420.53;5076029;28;20231;-74
2020/12/09 09:42:00;;;;;;;56.53;20.60;;;;;;;1.76;100.00;95420.53;5075733;28;20211;-74
2020/12/09 09:44:26;;;;;;;62.10;20.77;;;;;;;1.77;100.00;95416.97;5075811;28;20270;-73
2020/12/09 09:46:56;;;;;;;62.60;22.13;;;;;;;1.65;100.00;95416.34;5075721;28;20674;-73
2020/12/09 09:49:22;;;;;;;61.97;21.77;;;;;;;1.60;100.00;95421.16;5075132;28;20223;-73
2020/12/09 09:51:50;;;;;;;66.00;22.80;;;;;;;1.62;100.00;95427.03;5075118;28;20257;-73
2020/12/09 09:54:16;;;;;;;67.43;24.43;;;;;;;1.62;100.00;95424.44;5075194;28;20326;-73
2020/12/09 09:56:42;;;;;;;66.03;22.83;;;;;;;1.59;100.00;95416.94;5074836;28;20734;-73
2020/12/09 09:59:08;;;;;;;60.43;21.27;;;;;;;1.55;100.00;95425.13;5072335;28;20316;-77
2020/12/09 10:01:34;;;;;;;60.73;21.30;;;;;;;1.58;100.00;95417.06;5074889;28;20549;-74
2020/12/09 10:04:01;;;;;;;60.27;22.07;;;;;;;1.55;100.00;95417.34;5075631;28;20549;-72
2020/12/09 10:06:27;;;;;;;62.53;20.63;;;;;;;1.53;100.00;95414.91;5072039;28;20196;-75
2020/12/09 10:08:54;;;;;;;52.53;19.97;;;;;;;1.56;100.00;95408.63;5074359;28;20227;-71
2020/12/09 10:11:19;;;;;;;50.43;19.63;;;;;;;1.50;100.00;95409.19;5074096;28;20286;-73
2020/12/09 10:13:45;;;;;;;50.93;18.73;;;;;;;1.50;100.00;95415.19;5075783;28;20295;-74
2020/12/09 10:16:12;;;;;;;47.50;16.97;;;;;;;1.47;100.00;95414.66;5073171;28;20196;-74
2020/12/09 10:18:38;;;;;;;47.10;16.53;;;;;;;1.44;100.00;95410.56;5062320;28;20228;-75
2020/12/09 10:21:04;;;;;;;45.07;16.87;;;;;;;1.47;100.00;95417.25;5069570;28;20207;-75
2020/12/09 10:23:30;;;;;;;43.40;16.37;;;;;;;1.49;100.00;95418.75;5069124;28;20207;-72
2020/12/09 10:25:57;;;;;;;44.53;15.70;;;;;;;1.49;100.00;95418.75;5074376;28;20582;-74
2020/12/09 10:28:23;;;;;;;38.63;14.57;;;;;;;1.45;100.00;95420.00;5075536;28;20214;-72
2020/12/09 10:30:49;;;;;;;43.00;16.10;;;;;;;1.38;100.00;95415.50;5071973;28;20298;-75
2020/12/09 10:33:15;;;;;;;45.37;16.70;;;;;;;1.38;100.00;95416.31;5072831;28;20314;-74
2020/12/09 10:35:44;;;;;;;42.33;16.17;;;;;;;1.43;100.00;95410.72;5054682;28;20200;-74
2020/12/09 10:38:10;;;;;;;48.07;17.27;;;;;;;1.50;100.00;95411.78;5060137;28;20984;-76
2020/12/09 10:40:36;;;;;;;46.53;17.63;;;;;;;1.53;100.00;95408.91;5062986;28;20227;-76
2020/12/09 10:43:03;;;;;;;50.67;18.63;;;;;;;1.54;100.00;95408.75;5075009;28;20298;-76
2020/12/09 10:45:29;;;;;;;52.93;18.63;;;;;;;1.55;100.00;95397.41;5074321;28;20227;-75
2020/12/09 10:47:55;;;;;;;50.10;17.90;;;;;;;1.58;100.00;95397.13;5074907;28;20231;-75
2020/12/09 10:50:21;;;;;;;51.27;19.53;;;;;;;1.57;100.00;95390.28;5072506;28;20226;-74
2020/12/09 10:52:47;;;;;;;46.70;18.57;;;;;;;1.58;100.00;95389.34;5057560;28;20295;-74
2020/12/09 10:55:13;;;;;;;45.33;16.73;;;;;;;1.52;100.00;95383.91;5073992;28;20256;-74
2020/12/09 10:57:39;;;;;;;48.00;18.40;;;;;;;1.49;100.00;95377.22;5079361;28;20307;-75
2020/12/09 11:00:06;;;;;;;47.40;18.17;;;;;;;1.55;100.00;95386.19;5076513;28;20252;-75
2020/12/09 11:02:32;;;;;;;43.33;16.30;;;;;;;1.54;100.00;95379.38;5078326;28;20211;-76
2020/12/09 11:04:58;;;;;;;44.80;17.50;;;;;;;1.57;100.00;95379.09;5078931;28;20216;-75
2020/12/09 11:07:24;;;;;;;47.43;17.40;;;;;;;1.58;100.00;95386.75;5079541;28;20617;-76
2020/12/09 11:09:50;;;;;;;42.70;18.33;;;;;;;1.60;100.00;95389.19;5078478;28;21023;-73
2020/12/09 11:12:17;;;;;;;45.17;17.17;;;;;;;1.60;100.00;95382.22;5079722;28;20231;-73
2020/12/09 11:14:43;;;;;;;47.77;17.60;;;;;;;1.62;100.00;95380.31;5079118;28;20206;-73
2020/12/09 11:17:10;;;;;;;51.70;19.20;;;;;;;1.64;100.00;95385.34;5078269;28;20202;-73
2020/12/09 11:19:36;;;;;;;48.53;18.97;;;;;;;1.61;100.00;95375.25;5079193;28;20220;-72